Time;durP1;ratioP1;P1;durP2;ratioP2;P2;SDS_P1;SDS_P2;PMS_P1;PMS_P2;Temp;Humidity;BMP_temperature;BMP_pressure;BME280_temperature;BME280_humidity;BME280_pressure;Samples;Min_cycle;Max_cycle;Signal;HPM_P1;HPM_P2
2024/01/09 00:00:09;;;;;;;4.50;3.80;;;1.60;63.90;;;;;;5127459;27;20115;-70
2024/01/09 00:02:35;;;;;;;3.83;3.50;;;1.60;63.80;;;;;;5118312;27;20447;-69
2024/01/09 00:05:01;;;;;;;4.03;3.53;;;1.60;63.80;;;;;;5115936;27;20047;-69
2024/01/09 00:07:26;;;;;;;4.93;4.05;;;1.60;63.80;;;;;;5104644;27;20083;-70
2024/01/09 00:09:52;;;;;;;3.97;3.58;;;1.60;63.80;;;;;;5136418;27;20030;-71
2024/01/09 00:12:18;;;;;;;4.72;3.83;;;1.50;63.70;;;;;;5108182;28;20031;-70
2024/01/09 00:14:43;;;;;;;4.25;3.78;;;1.60;63.70;;;;;;5115522;28;20446;-70
2024/01/09 00:17:09;;;;;;;4.20;3.70;;;1.60;63.70;;;;;;5116697;27;20019;-70
2024/01/09 00:19:35;;;;;;;5.07;3.70;;;1.50;63.60;;;;;;5134119;27;20136;-70
2024/01/09 00:22:02;;;;;;;4.10;3.42;;;1.50;63.70;;;;;;5134245;27;20110;-70
2024/01/09 00:24:28;;;;;;;4.85;3.60;;;1.50;63.60;;;;;;5101656;28;20524;-69
2024/01/09 00:26:53;;;;;;;4.13;3.72;;;1.50;63.60;;;;;;5116385;27;20089;-70
2024/01/09 00:29:20;;;;;;;5.30;3.85;;;1.50;63.60;;;;;;5131471;27;20035;-70
2024/01/09 00:31:46;;;;;;;4.35;3.70;;;1.50;63.50;;;;;;5097395;28;20480;-69
2024/01/09 00:34:11;;;;;;;3.85;3.47;;;1.50;63.60;;;;;;5116003;27;20118;-70
2024/01/09 00:36:44;;;;;;;3.97;3.58;;;1.50;63.50;;;;;;5103754;27;20043;-70
2024/01/09 00:39:13;;;;;;;4.53;3.90;;;1.50;63.50;;;;;;5104297;28;20030;-70
2024/01/09 00:41:38;;;;;;;4.95;3.90;;;1.50;63.50;;;;;;5096572;28;20027;-70
2024/01/09 00:44:04;;;;;;;3.90;3.50;;;1.40;63.40;;;;;;5096804;28;20027;-70
2024/01/09 00:46:30;;;;;;;4.78;3.67;;;1.40;63.40;;;;;;5112984;27;20059;-71
2024/01/09 00:48:55;;;;;;;4.70;3.75;;;1.40;63.40;;;;;;5108684;28;20023;-70
2024/01/09 00:51:21;;;;;;;4.07;3.50;;;1.40;63.40;;;;;;5096888;28;20130;-70
2024/01/09 00:53:46;;;;;;;4.72;3.80;;;1.40;63.40;;;;;;5096751;28;20023;-71
2024/01/09 00:56:12;;;;;;;3.50;3.20;;;1.40;63.30;;;;;;5119336;27;20091;-70
2024/01/09 00:58:38;;;;;;;4.68;3.75;;;1.40;63.30;;;;;;5127683;27;20066;-71
2024/01/09 01:01:04;;;;;;;4.82;3.90;;;1.40;63.30;;;;;;5106458;27;20020;-70
2024/01/09 01:03:29;;;;;;;4.32;3.65;;;1.40;63.30;;;;;;5125615;27;20073;-70
2024/01/09 01:05:55;;;;;;;4.43;3.60;;;1.30;63.20;;;;;;5112196;27;20051;-70
2024/01/09 01:08:21;;;;;;;4.60;4.07;;;1.30;63.20;;;;;;5101560;28;20032;-69
2024/01/09 01:10:48;;;;;;;4.22;3.67;;;1.30;63.20;;;;;;5108574;28;20054;-70
2024/01/09 01:13:13;;;;;;;5.00;4.00;;;1.30;63.20;;;;;;5096651;28;20421;-71
2024/01/09 01:15:39;;;;;;;5.00;4.00;;;1.30;63.20;;;;;;5117289;27;20063;-69
2024/01/09 01:18:05;;;;;;;3.88;3.47;;;1.30;63.10;;;;;;5122946;27;20500;-70
2024/01/09 01:20:30;;;;;;;5.22;3.92;;;1.30;63.10;;;;;;5102241;27;20031;-70
2024/01/09 01:22:56;;;;;;;4.13;3.53;;;1.20;63.10;;;;;;5114814;27;20023;-69
2024/01/09 01:25:22;;;;;;;4.07;3.67;;;1.30;63.10;;;;;;5111534;28;20083;-70
2024/01/09 01:27:47;;;;;;;4.78;3.90;;;1.30;63.10;;;;;;5111366;28;20050;-70
2024/01/09 01:30:13;;;;;;;4.00;3.60;;;1.20;63.00;;;;;;5102610;28;20030;-69
2024/01/09 01:32:39;;;;;;;4.72;4.15;;;1.20;63.00;;;;;;5106043;28;20031;-69
2024/01/09 01:35:05;;;;;;;4.85;3.95;;;1.20;63.00;;;;;;5114225;28;20035;-70
2024/01/09 01:37:31;;;;;;;4.55;3.92;;;1.20;63.10;;;;;;5117190;28;20084;-69
2024/01/09 01:39:56;;;;;;;4.78;3.63;;;1.20;63.00;;;;;;5123318;27;20023;-68
2024/01/09 01:42:22;;;;;;;5.05;3.90;;;1.20;63.00;;;;;;5099523;28;20028;-70
2024/01/09 01:44:48;;;;;;;4.15;3.75;;;1.20;62.90;;;;;;5114386;28;20027;-71
2024/01/09 01:47:14;;;;;;;4.38;3.78;;;1.20;62.90;;;;;;5130577;28;20023;-70
2024/01/09 01:49:41;;;;;;;4.03;3.60;;;1.10;62.90;;;;;;5125169;27;20031;-70
2024/01/09 01:52:07;;;;;;;4.88;3.90;;;1.20;63.00;;;;;;5101201;27;20092;-70
2024/01/09 01:54:35;;;;;;;4.80;3.72;;;1.10;62.90;;;;;;5111347;28;20476;-70
2024/01/09 01:57:02;;;;;;;4.20;3.80;;;1.10;62.80;;;;;;5109535;27;20866;-69
2024/01/09 01:59:30;;;;;;;4.43;3.50;;;1.10;62.80;;;;;;5124747;27;20024;-70
2024/01/09 02:01:56;;;;;;;4.40;4.00;;;1.10;62.80;;;;;;5113457;27;20119;-69
2024/01/09 02:04:23;;;;;;;4.03;3.63;;;1.10;62.80;;;;;;5133549;27;20141;-69
2024/01/09 02:06:49;;;;;;;4.55;3.90;;;1.00;62.70;;;;;;5121533;27;20087;-69
2024/01/09 02:09:15;;;;;;;4.35;3.53;;;1.10;62.80;;;;;;5104748;27;20051;-70
2024/01/09 02:11:41;;;;;;;4.40;3.58;;;1.00;62.70;;;;;;5110891;28;20024;-70
2024/01/09 02:14:07;;;;;;;4.28;3.88;;;1.10;62.80;;;;;;5130831;27;20030;-69
2024/01/09 02:16:33;;;;;;;4.35;3.88;;;1.00;62.70;;;;;;5123313;27;20369;-69
2024/01/09 02:18:58;;;;;;;4.03;3.58;;;1.00;62.70;;;;;;5134165;27;20042;-70
2024/01/09 02:21:24;;;;;;;4.90;3.95;;;1.00;62.70;;;;;;5086884;27;20030;-69
2024/01/09 02:23:50;;;;;;;4.60;4.15;;;1.00;62.60;;;;;;5118025;27;20023;-70
2024/01/09 02:26:19;;;;;;;4.55;3.60;;;1.00;62.60;;;;;;5121053;27;20055;-69
2024/01/09 02:28:55;;;;;;;3.70;3.30;;;1.00;62.60;;;;;;5109001;27;20084;-71
2024/01/09 02:31:21;;;;;;;4.57;3.90;;;1.00;62.60;;;;;;5111711;27;20035;-70
2024/01/09 02:33:47;;;;;;;4.25;3.80;;;1.00;62.50;;;;;;5133761;27;20476;-70
2024/01/09 02:36:13;;;;;;;3.95;3.58;;;1.00;62.50;;;;;;5134737;27;20061;-70
2024/01/09 02:38:43;;;;;;;4.32;3.92;;;1.00;62.50;;;;;;5123481;27;20046;-69
2024/01/09 02:41:08;;;;;;;4.63;3.78;;;0.90;62.40;;;;;;5127399;27;20042;-69
2024/01/09 02:43:34;;;;;;;4.25;3.80;;;0.90;62.40;;;;;;5118013;27;20032;-70
2024/01/09 02:46:00;;;;;;;5.38;4.25;;;0.90;62.40;;;;;;5126633;27;20054;-69
2024/01/09 02:48:25;;;;;;;4.78;3.80;;;0.90;62.40;;;;;;5124712;27;20414;-70
2024/01/09 02:50:51;;;;;;;4.13;3.63;;;0.90;62.40;;;;;;5133381;27;20027;-70
2024/01/09 02:53:17;;;;;;;4.45;3.92;;;0.90;62.30;;;;;;5124592;27;20031;-70
2024/01/09 02:55:42;;;;;;;4.22;3.72;;;0.90;62.30;;;;;;5108268;28;20024;-70
2024/01/09 02:58:09;;;;;;;3.50;3.20;;;0.80;62.20;;;;;;5127634;27;20475;-69
2024/01/09 03:00:34;;;;;;;4.00;3.60;;;0.90;62.30;;;;;;5118622;27;20031;-70
2024/01/09 03:03:00;;;;;;;4.85;3.88;;;0.80;62.20;;;;;;5127857;27;20117;-70
2024/01/09 03:05:26;;;;;;;4.43;3.85;;;0.90;62.30;;;;;;5120569;27;20059;-70
2024/01/09 03:07:51;;;;;;;4.53;3.75;;;0.80;62.20;;;;;;5101648;27;20035;-70
2024/01/09 03:10:17;;;;;;;4.78;4.05;;;0.80;62.20;;;;;;5134709;27;20410;-70
2024/01/09 03:12:43;;;;;;;4.22;3.70;;;0.80;62.20;;;;;;5126726;27;20054;-70
2024/01/09 03:15:09;;;;;;;4.70;4.05;;;0.80;62.20;;;;;;5136987;27;20038;-70
2024/01/09 03:17:35;;;;;;;5.00;3.95;;;0.80;62.20;;;;;;5117180;27;20440;-69
2024/01/09 03:20:01;;;;;;;5.25;3.97;;;0.80;62.20;;;;;;5100635;28;20028;-69
2024/01/09 03:22:26;;;;;;;4.22;3.65;;;0.80;62.20;;;;;;5116572;27;20547;-70
2024/01/09 03:24:52;;;;;;;4.80;4.30;;;0.80;62.20;;;;;;5100742;27;20444;-70
2024/01/09 03:27:18;;;;;;;4.30;3.60;;;0.70;62.10;;;;;;5117813;27;20073;-70
2024/01/09 03:29:43;;;;;;;4.72;3.97;;;0.80;62.10;;;;;;5113749;27;20106;-70
2024/01/09 03:32:09;;;;;;;4.07;3.67;;;0.80;62.10;;;;;;5102739;27;20034;-70
2024/01/09 03:34:35;;;;;;;4.80;4.00;;;0.70;62.10;;;;;;5115983;27;20066;-71
2024/01/09 03:37:00;;;;;;;5.10;4.05;;;0.70;62.10;;;;;;5103708;27;20031;-70
2024/01/09 03:39:26;;;;;;;4.57;4.07;;;0.70;62.10;;;;;;5118372;27;20026;-70
2024/01/09 03:41:52;;;;;;;4.82;3.92;;;0.70;62.10;;;;;;5102620;28;20031;-70
2024/01/09 03:44:18;;;;;;;4.88;4.20;;;0.70;62.00;;;;;;5097952;28;20069;-69
2024/01/09 03:46:43;;;;;;;4.00;3.60;;;0.70;62.10;;;;;;5107680;28;20435;-69
2024/01/09 03:49:09;;;;;;;4.53;3.70;;;0.70;62.00;;;;;;5107370;27;20022;-68
2024/01/09 03:51:35;;;;;;;4.80;4.10;;;0.70;62.00;;;;;;5104487;28;20358;-71
2024/01/09 03:54:01;;;;;;;4.60;3.83;;;0.70;62.00;;;;;;5126793;27;20016;-70
2024/01/09 03:56:27;;;;;;;4.70;3.72;;;0.70;62.00;;;;;;5109731;27;20454;-70
2024/01/09 03:58:53;;;;;;;4.55;3.75;;;0.70;62.00;;;;;;5128726;27;20108;-70
2024/01/09 04:01:19;;;;;;;4.78;3.95;;;0.70;62.00;;;;;;5104036;27;20027;-68
2024/01/09 04:03:45;;;;;;;3.72;3.42;;;0.60;61.90;;;;;;5115948;27;20027;-70
2024/01/09 04:06:11;;;;;;;4.05;3.60;;;0.60;61.90;;;;;;5116098;27;20024;-70
2024/01/09 04:08:37;;;;;;;4.22;3.83;;;0.60;61.90;;;;;;5120301;27;20099;-70
2024/01/09 04:11:04;;;;;;;3.92;3.47;;;0.60;61.90;;;;;;5131781;27;20058;-70
2024/01/09 04:13:29;;;;;;;4.22;3.80;;;0.60;61.90;;;;;;5123165;27;20024;-70
2024/01/09 04:15:55;;;;;;;4.13;3.72;;;0.60;61.90;;;;;;5097386;28;20496;-69
2024/01/09 04:18:21;;;;;;;4.72;3.97;;;0.60;61.90;;;;;;5097815;28;20031;-70
2024/01/09 04:20:46;;;;;;;5.70;4.18;;;0.60;61.80;;;;;;5101474;27;20082;-71
2024/01/09 04:23:12;;;;;;;6.05;4.47;;;0.60;61.80;;;;;;5099000;27;20024;-69
2024/01/09 04:25:38;;;;;;;4.75;4.20;;;0.60;61.80;;;;;;5116722;27;20118;-70
2024/01/09 04:28:03;;;;;;;5.20;4.10;;;0.60;61.80;;;;;;5132779;27;20067;-70
2024/01/09 04:30:29;;;;;;;4.60;3.85;;;0.60;61.80;;;;;;5119058;27;20031;-70
2024/01/09 04:32:55;;;;;;;4.20;3.80;;;0.60;61.70;;;;;;5126197;27;20092;-70
2024/01/09 04:35:20;;;;;;;4.20;3.80;;;0.50;61.70;;;;;;5117048;27;20132;-71
2024/01/09 04:37:46;;;;;;;5.00;3.97;;;0.60;61.70;;;;;;5127641;27;20061;-71
2024/01/09 04:40:12;;;;;;;4.97;4.07;;;0.50;61.70;;;;;;5107089;27;20061;-69
2024/01/09 04:42:37;;;;;;;4.60;4.10;;;0.50;61.70;;;;;;5105684;27;20030;-70
2024/01/09 04:45:03;;;;;;;5.18;4.30;;;0.50;61.70;;;;;;5117521;27;20422;-70
2024/01/09 04:47:30;;;;;;;4.72;3.45;;;0.50;61.70;;;;;;5130751;27;20023;-70
2024/01/09 04:49:56;;;;;;;5.18;4.03;;;0.50;61.60;;;;;;5135404;27;20030;-71
2024/01/09 04:52:21;;;;;;;5.13;3.95;;;0.50;61.60;;;;;;5112761;27;20019;-70
2024/01/09 04:54:47;;;;;;;4.57;3.85;;;0.50;61.60;;;;;;5116835;27;20386;-70
2024/01/09 04:57:12;;;;;;;5.03;3.92;;;0.50;61.60;;;;;;5131842;27;20414;-69
2024/01/09 04:59:41;;;;;;;5.32;4.55;;;0.50;61.60;;;;;;5124765;27;20419;-70
2024/01/09 05:02:07;;;;;;;4.28;3.75;;;0.40;61.50;;;;;;5126763;27;20019;-70
2024/01/09 05:04:32;;;;;;;5.05;3.90;;;0.40;61.50;;;;;;5115380;28;20048;-70
2024/01/09 05:06:58;;;;;;;4.82;4.13;;;0.40;61.50;;;;;;5127988;27;20448;-68
2024/01/09 05:09:24;;;;;;;5.28;4.32;;;0.40;61.50;;;;;;5126297;27;20048;-70
2024/01/09 05:11:50;;;;;;;6.07;4.20;;;0.40;61.50;;;;;;5108968;27;20031;-71
2024/01/09 05:14:16;;;;;;;5.65;4.20;;;0.40;61.50;;;;;;5123261;27;20026;-69
2024/01/09 05:16:41;;;;;;;5.78;4.35;;;0.40;61.50;;;;;;5133593;27;20023;-69
2024/01/09 05:19:07;;;;;;;5.30;4.40;;;0.40;61.50;;;;;;5117958;27;20381;-69
2024/01/09 05:21:33;;;;;;;3.90;3.50;;;0.40;61.50;;;;;;5098391;28;20024;-70
2024/01/09 05:23:58;;;;;;;4.97;4.35;;;0.40;61.50;;;;;;5129577;27;20053;-70
2024/01/09 05:26:24;;;;;;;5.03;4.05;;;0.40;61.50;;;;;;5112964;27;20031;-70
2024/01/09 05:28:50;;;;;;;4.95;3.88;;;0.40;61.50;;;;;;5096328;28;20024;-71
2024/01/09 05:31:16;;;;;;;4.50;4.10;;;0.40;61.50;;;;;;5096254;28;20035;-71
2024/01/09 05:33:41;;;;;;;3.60;3.25;;;0.40;61.50;;;;;;5129446;27;20392;-73
2024/01/09 05:36:07;;;;;;;5.65;4.30;;;0.40;61.50;;;;;;5113140;28;20457;-75
2024/01/09 05:38:33;;;;;;;5.28;4.10;;;0.40;61.50;;;;;;5113322;28;20084;-70
2024/01/09 05:40:59;;;;;;;5.00;4.10;;;0.40;61.50;;;;;;5112897;28;20034;-72
2024/01/09 05:43:24;;;;;;;5.03;4.32;;;0.30;61.40;;;;;;5114196;28;20015;-72
2024/01/09 05:45:50;;;;;;;4.80;4.30;;;0.30;61.40;;;;;;5095957;28;20441;-69
2024/01/09 05:48:16;;;;;;;5.93;4.47;;;0.30;61.40;;;;;;5107144;28;20077;-69
2024/01/09 05:50:41;;;;;;;4.90;4.13;;;0.40;61.40;;;;;;5115643;27;20027;-68
2024/01/09 05:53:08;;;;;;;5.07;4.25;;;0.40;61.50;;;;;;5116223;28;20027;-69
2024/01/09 05:55:34;;;;;;;5.25;4.30;;;0.30;61.40;;;;;;5116308;28;20027;-69
2024/01/09 05:58:01;;;;;;;5.25;4.18;;;0.30;61.40;;;;;;5116149;28;20038;-69
2024/01/09 06:00:27;;;;;;;5.15;3.85;;;0.40;61.40;;;;;;5134594;28;20102;-70
2024/01/09 06:02:52;;;;;;;4.65;3.70;;;0.40;61.40;;;;;;5116022;27;20114;-69
2024/01/09 06:05:18;;;;;;;4.22;3.83;;;0.40;61.50;;;;;;5116070;28;20381;-69
2024/01/09 06:07:44;;;;;;;4.25;3.85;;;0.30;61.40;;;;;;5138590;27;20376;-68
2024/01/09 06:10:10;;;;;;;5.03;3.83;;;0.40;61.40;;;;;;5116849;28;20034;-69
2024/01/09 06:12:36;;;;;;;4.90;4.22;;;0.40;61.40;;;;;;5116078;28;20038;-69
2024/01/09 06:15:03;;;;;;;4.72;3.92;;;0.40;61.40;;;;;;5116151;28;20030;-69
2024/01/09 06:17:29;;;;;;;4.75;3.85;;;0.40;61.30;;;;;;5131817;28;20468;-69
2024/01/09 06:19:54;;;;;;;4.22;3.80;;;0.40;61.40;;;;;;5112589;28;20023;-68
2024/01/09 06:22:20;;;;;;;4.03;3.63;;;0.40;61.30;;;;;;5112793;28;20051;-69
2024/01/09 06:24:46;;;;;;;4.00;3.60;;;0.40;61.20;;;;;;5112608;28;20484;-69
2024/01/09 06:27:11;;;;;;;4.20;3.70;;;0.40;61.20;;;;;;5112532;28;20071;-69
2024/01/09 06:29:37;;;;;;;4.40;3.70;;;0.40;61.20;;;;;;5112511;28;20062;-70
2024/01/09 06:32:03;;;;;;;4.90;3.70;;;0.50;61.30;;;;;;5112202;28;20027;-69
2024/01/09 06:34:29;;;;;;;4.15;3.75;;;0.50;61.20;;;;;;5113519;28;20059;-69
2024/01/09 06:36:54;;;;;;;5.32;4.28;;;0.50;61.20;;;;;;5115469;28;20035;-69
2024/01/09 06:39:20;;;;;;;5.47;4.45;;;0.50;61.20;;;;;;5117666;28;20034;-69
2024/01/09 06:41:46;;;;;;;3.88;3.50;;;0.50;61.20;;;;;;5115979;28;20024;-69
2024/01/09 06:44:12;;;;;;;5.45;4.13;;;0.50;61.20;;;;;;5116117;28;20019;-71
2024/01/09 06:46:37;;;;;;;4.70;3.90;;;0.50;61.20;;;;;;5117382;28;20039;-69
2024/01/09 06:49:03;;;;;;;5.22;4.13;;;0.50;61.10;;;;;;5118327;27;20032;-69
2024/01/09 06:51:29;;;;;;;5.07;4.10;;;0.50;61.10;;;;;;5115381;28;20032;-70
2024/01/09 06:53:55;;;;;;;4.63;3.80;;;0.60;61.20;;;;;;5116310;28;20024;-70
2024/01/09 06:56:21;;;;;;;6.22;4.32;;;0.50;61.10;;;;;;5115874;28;20537;-70
2024/01/09 06:58:47;;;;;;;4.57;3.75;;;0.60;61.20;;;;;;5117178;27;20031;-70
2024/01/09 07:01:12;;;;;;;4.57;4.07;;;0.60;61.10;;;;;;5115763;28;20051;-71
2024/01/09 07:03:38;;;;;;;4.38;3.83;;;0.60;61.10;;;;;;5118957;27;20028;-69
2024/01/09 07:06:04;;;;;;;3.92;3.40;;;0.60;61.10;;;;;;5137871;27;20030;-70
2024/01/09 07:08:30;;;;;;;5.05;4.10;;;0.60;61.10;;;;;;5119092;27;20103;-72
2024/01/09 07:10:58;;;;;;;6.70;4.07;;;0.60;61.10;;;;;;5119134;27;20065;-69
2024/01/09 07:13:24;;;;;;;5.03;4.05;;;0.60;61.00;;;;;;5119027;27;20027;-70
2024/01/09 07:15:50;;;;;;;4.85;3.75;;;0.60;61.00;;;;;;5118942;27;20526;-69
2024/01/09 07:18:16;;;;;;;5.35;3.65;;;0.60;61.00;;;;;;5119015;27;20027;-70
2024/01/09 07:20:43;;;;;;;4.82;3.85;;;0.70;61.00;;;;;;5137208;27;20024;-68
2024/01/09 07:23:09;;;;;;;5.53;4.07;;;0.70;61.00;;;;;;5118970;27;20057;-70
2024/01/09 07:25:34;;;;;;;4.30;3.70;;;0.70;61.00;;;;;;5118806;27;20055;-69
2024/01/09 07:28:00;;;;;;;4.63;3.70;;;0.70;60.90;;;;;;5137084;27;20107;-70
2024/01/09 07:30:26;;;;;;;4.40;3.70;;;0.80;61.00;;;;;;5118560;27;20370;-69
2024/01/09 07:32:52;;;;;;;4.65;4.05;;;0.70;60.90;;;;;;5118916;27;20123;-70
2024/01/09 07:35:17;;;;;;;4.55;3.78;;;0.70;60.90;;;;;;5114942;28;20466;-69
2024/01/09 07:37:43;;;;;;;4.65;3.67;;;0.70;60.90;;;;;;5115502;28;20164;-69
2024/01/09 07:40:09;;;;;;;4.43;3.75;;;0.80;60.90;;;;;;5114856;28;20027;-70
2024/01/09 07:42:35;;;;;;;4.72;3.70;;;0.80;60.90;;;;;;5116341;28;20023;-70
2024/01/09 07:45:02;;;;;;;4.28;3.80;;;0.80;60.90;;;;;;5116466;28;20027;-69
2024/01/09 07:47:28;;;;;;;5.18;3.63;;;0.80;60.90;;;;;;5113919;28;20114;-68
2024/01/09 07:49:54;;;;;;;4.65;3.70;;;0.80;60.90;;;;;;5115292;28;20078;-69
2024/01/09 07:52:20;;;;;;;3.80;3.33;;;0.80;60.90;;;;;;5115187;28;20181;-69
2024/01/09 07:54:46;;;;;;;5.35;4.18;;;0.80;60.90;;;;;;5114892;28;20371;-70
2024/01/09 07:57:11;;;;;;;3.83;3.30;;;0.80;60.90;;;;;;5114566;27;20088;-68
2024/01/09 07:59:37;;;;;;;4.35;3.75;;;0.80;60.90;;;;;;5115085;28;20051;-69
2024/01/09 08:02:05;;;;;;;4.68;3.65;;;0.80;60.90;;;;;;5116144;28;20453;-70
2024/01/09 08:04:31;;;;;;;3.80;3.35;;;0.90;60.90;;;;;;5117462;27;20039;-69
2024/01/09 08:06:57;;;;;;;4.15;3.67;;;0.90;60.90;;;;;;5134342;27;20039;-69
2024/01/09 08:09:22;;;;;;;3.60;3.30;;;0.90;60.90;;;;;;5116829;27;20058;-69
2024/01/09 08:11:48;;;;;;;4.00;3.60;;;0.90;60.90;;;;;;5118029;27;20461;-70
2024/01/09 08:14:14;;;;;;;3.85;3.55;;;0.90;60.90;;;;;;5117936;27;20020;-69
2024/01/09 08:16:41;;;;;;;4.88;3.58;;;0.90;60.90;;;;;;5118087;27;20117;-69
2024/01/09 08:19:07;;;;;;;4.35;3.60;;;1.00;61.10;;;;;;5117684;27;20385;-70
2024/01/09 08:21:36;;;;;;;3.92;3.38;;;1.00;61.00;;;;;;5136134;27;20062;-69
2024/01/09 08:24:03;;;;;;;4.10;3.50;;;1.00;61.60;;;;;;5136152;27;20040;-69
2024/01/09 08:26:29;;;;;;;3.70;3.30;;;1.00;61.10;;;;;;5117560;27;20106;-70
2024/01/09 08:28:55;;;;;;;3.35;3.05;;;1.00;61.10;;;;;;5117884;27;20453;-68
2024/01/09 08:31:21;;;;;;;3.88;3.47;;;1.10;61.20;;;;;;5117276;27;20097;-69
2024/01/09 08:33:47;;;;;;;3.30;3.00;;;1.20;61.10;;;;;;5116796;27;20027;-69
2024/01/09 08:36:14;;;;;;;4.13;3.30;;;1.20;61.10;;;;;;5117406;27;20027;-70
2024/01/09 08:38:39;;;;;;;4.28;3.67;;;1.30;61.00;;;;;;5117455;27;20055;-69
2024/01/09 08:41:05;;;;;;;4.45;3.42;;;1.30;61.00;;;;;;5135271;27;20502;-68
2024/01/09 08:43:31;;;;;;;4.72;3.70;;;1.40;61.10;;;;;;5117246;27;20453;-69
2024/01/09 08:45:57;;;;;;;4.30;3.25;;;1.40;61.00;;;;;;5135859;27;20139;-69
2024/01/09 08:48:23;;;;;;;4.32;3.50;;;1.50;61.00;;;;;;5117527;27;20299;-69
2024/01/09 08:50:49;;;;;;;4.35;3.65;;;1.50;60.90;;;;;;5135476;27;20038;-69
2024/01/09 08:53:14;;;;;;;4.07;3.25;;;1.60;61.00;;;;;;5116861;27;20023;-69
2024/01/09 08:55:40;;;;;;;3.53;3.22;;;1.60;61.50;;;;;;5135395;27;20084;-69
2024/01/09 08:58:06;;;;;;;3.55;3.20;;;1.70;60.90;;;;;;5135687;27;20039;-70
2024/01/09 09:00:35;;;;;;;3.42;3.13;;;1.70;60.90;;;;;;5116820;27;20054;-70
2024/01/09 09:03:01;;;;;;;4.18;3.55;;;1.80;61.00;;;;;;5115926;27;20448;-69
2024/01/09 09:05:26;;;;;;;4.80;3.55;;;1.80;60.90;;;;;;5121485;27;20078;-69
2024/01/09 09:07:52;;;;;;;4.75;3.47;;;1.90;60.80;;;;;;5113501;28;20031;-70
2024/01/09 09:10:18;;;;;;;3.38;3.05;;;1.90;60.80;;;;;;5114407;28;20031;-69
2024/01/09 09:12:46;;;;;;;4.63;3.40;;;2.00;60.80;;;;;;5113913;28;20077;-70
2024/01/09 09:15:12;;;;;;;4.03;3.63;;;2.00;60.80;;;;;;5113302;28;20031;-69
2024/01/09 09:17:37;;;;;;;3.60;3.30;;;2.10;60.80;;;;;;5113229;28;20031;-69
2024/01/09 09:20:05;;;;;;;3.80;3.38;;;2.10;60.70;;;;;;5113232;28;20024;-70
2024/01/09 09:22:31;;;;;;;3.38;3.08;;;2.20;60.80;;;;;;5114406;28;20034;-69
2024/01/09 09:24:58;;;;;;;3.53;3.20;;;2.20;60.70;;;;;;5114436;28;20020;-69
2024/01/09 09:27:23;;;;;;;4.30;3.70;;;2.30;60.70;;;;;;5114453;28;20028;-70
2024/01/09 09:29:49;;;;;;;4.55;3.53;;;2.30;60.70;;;;;;5113639;28;20028;-69
2024/01/09 09:32:15;;;;;;;3.53;3.20;;;2.30;60.60;;;;;;5113388;28;20466;-68
2024/01/09 09:34:41;;;;;;;3.55;3.20;;;2.40;60.70;;;;;;5129489;27;20034;-70
2024/01/09 09:37:07;;;;;;;3.40;3.10;;;2.40;60.60;;;;;;5115924;28;20027;-70
2024/01/09 09:39:33;;;;;;;4.03;3.25;;;2.50;60.60;;;;;;5116495;28;20072;-69
2024/01/09 09:41:59;;;;;;;3.30;3.00;;;2.50;60.50;;;;;;5116266;28;20030;-69
2024/01/09 09:44:26;;;;;;;4.40;3.45;;;2.50;60.40;;;;;;5116675;28;20376;-71
2024/01/09 09:46:52;;;;;;;3.50;3.20;;;2.50;60.50;;;;;;5116358;28;20034;-70
2024/01/09 09:49:24;;;;;;;3.70;3.40;;;2.50;60.50;;;;;;5116147;28;20046;-70
2024/01/09 09:51:51;;;;;;;3.95;3.38;;;2.60;60.50;;;;;;5116331;28;20055;-70
2024/01/09 09:54:18;;;;;;;3.55;2.95;;;2.60;60.50;;;;;;5117093;28;20406;-69
2024/01/09 09:56:45;;;;;;;4.68;3.75;;;2.60;60.50;;;;;;5135025;27;20046;-68
2024/01/09 09:59:11;;;;;;;3.90;3.42;;;2.70;60.50;;;;;;5125596;28;20036;-69
2024/01/09 10:01:39;;;;;;;3.47;3.10;;;2.70;60.40;;;;;;5112905;28;20043;-70
2024/01/09 10:04:29;;;;;;;3.95;3.55;;;2.70;60.40;;;;;;5115027;28;20050;-72
2024/01/09 10:07:00;;;;;;;4.28;3.40;;;2.70;60.40;;;;;;5114347;28;20115;-69
2024/01/09 10:09:34;;;;;;;4.10;3.40;;;2.70;60.30;;;;;;5115133;28;20015;-69
2024/01/09 10:12:00;;;;;;;3.65;3.25;;;2.80;60.40;;;;;;5116434;28;20024;-69
2024/01/09 10:14:26;;;;;;;4.25;3.38;;;2.80;60.40;;;;;;5118063;28;20030;-70
2024/01/09 10:16:54;;;;;;;3.83;3.42;;;2.80;60.30;;;;;;5116653;28;20052;-68
2024/01/09 10:19:23;;;;;;;3.90;3.40;;;2.70;60.30;;;;;;5116711;28;20031;-68
2024/01/09 10:21:50;;;;;;;4.80;3.60;;;2.80;60.30;;;;;;5118321;28;20038;-69
2024/01/09 10:24:16;;;;;;;4.15;3.40;;;2.70;60.30;;;;;;5116679;28;20077;-70
2024/01/09 10:26:43;;;;;;;4.38;3.53;;;2.80;60.40;;;;;;5116635;28;20024;-69
2024/01/09 10:29:09;;;;;;;4.10;3.53;;;2.80;60.30;;;;;;5116532;28;20020;-69
2024/01/09 10:31:35;;;;;;;3.88;3.47;;;2.80;60.40;;;;;;5116386;28;20046;-70
2024/01/09 10:34:01;;;;;;;4.32;3.60;;;2.70;60.30;;;;;;5117490;27;20024;-69
2024/01/09 10:36:33;;;;;;;4.07;3.50;;;2.70;60.30;;;;;;5119269;27;20039;-71
2024/01/09 10:39:04;;;;;;;3.60;3.17;;;2.70;60.30;;;;;;5119702;27;20083;-69
2024/01/09 10:41:30;;;;;;;3.60;3.08;;;2.70;60.30;;;;;;5137946;27;20433;-70
2024/01/09 10:43:56;;;;;;;3.75;3.35;;;2.70;60.30;;;;;;5119609;27;20031;-68
2024/01/09 10:46:25;;;;;;;4.22;3.67;;;2.70;60.30;;;;;;5119598;27;20088;-69
2024/01/09 10:48:53;;;;;;;3.80;3.40;;;2.70;60.40;;;;;;5119477;27;20080;-70
2024/01/09 10:51:20;;;;;;;4.05;3.65;;;2.70;60.30;;;;;;5119030;27;20027;-69
2024/01/09 10:53:48;;;;;;;4.00;3.38;;;2.70;60.30;;;;;;5119300;27;20035;-70
2024/01/09 10:56:18;;;;;;;4.55;3.65;;;2.70;60.30;;;;;;5137689;27;20378;-69
2024/01/09 10:58:48;;;;;;;4.10;3.42;;;2.70;60.30;;;;;;5119335;27;20035;-69
2024/01/09 11:01:15;;;;;;;4.15;3.38;;;2.70;60.30;;;;;;5119389;27;20024;-70
2024/01/09 11:03:44;;;;;;;3.65;3.03;;;2.70;60.30;;;;;;5119020;27;20031;-69
2024/01/09 11:06:11;;;;;;;4.57;3.33;;;2.70;60.30;;;;;;5119524;27;20118;-70
2024/01/09 11:08:37;;;;;;;3.45;3.10;;;2.70;60.40;;;;;;5137889;27;20027;-69
2024/01/09 11:11:08;;;;;;;4.03;3.63;;;2.60;60.30;;;;;;5119092;27;20019;-69
2024/01/09 11:13:38;;;;;;;3.55;3.25;;;2.60;60.40;;;;;;5137416;27;20083;-70
2024/01/09 11:16:07;;;;;;;3.83;3.42;;;2.60;60.40;;;;;;5119004;27;20114;-70
2024/01/09 11:18:34;;;;;;;3.92;3.38;;;2.60;60.40;;;;;;5118887;27;20031;-69
2024/01/09 11:21:04;;;;;;;3.92;3.40;;;2.60;60.40;;;;;;5118867;27;20023;-69
2024/01/09 11:23:52;;;;;;;3.95;3.38;;;2.60;60.50;;;;;;5137224;27;20484;-69
2024/01/09 11:26:19;;;;;;;3.90;3.50;;;2.50;60.40;;;;;;5119439;27;20039;-70
2024/01/09 11:28:48;;;;;;;3.90;3.50;;;2.50;60.50;;;;;;5135422;27;20342;-72
2024/01/09 11:31:23;;;;;;;4.32;3.33;;;2.50;60.50;;;;;;5137533;27;20362;-69
2024/01/09 11:33:51;;;;;;;4.20;3.47;;;2.50;60.60;;;;;;5136481;27;20091;-69
2024/01/09 11:36:34;;;;;;;3.97;3.58;;;2.50;60.50;;;;;;5118749;27;20118;-70
2024/01/09 11:39:00;;;;;;;4.50;3.50;;;2.50;60.60;;;;;;5118745;27;20067;-70
2024/01/09 11:41:35;;;;;;;4.35;3.53;;;2.50;60.60;;;;;;5136789;27;20448;-70
2024/01/09 11:44:02;;;;;;;3.33;3.03;;;2.50;60.60;;;;;;5118587;27;20023;-69
2024/01/09 11:46:35;;;;;;;3.80;3.40;;;2.40;60.60;;;;;;5118391;27;20053;-69
2024/01/09 11:49:01;;;;;;;3.83;3.40;;;2.40;60.60;;;;;;5118680;27;20027;-69
2024/01/09 11:51:31;;;;;;;4.47;3.50;;;2.40;60.60;;;;;;5136558;27;20077;-70
2024/01/09 11:54:00;;;;;;;4.07;3.55;;;2.40;60.60;;;;;;5136723;27;20066;-69
2024/01/09 11:56:27;;;;;;;3.40;3.10;;;2.40;61.20;;;;;;5117982;27;20130;-69
2024/01/09 11:58:53;;;;;;;5.43;4.00;;;2.40;60.60;;;;;;5116241;27;20032;-70
2024/01/09 12:01:23;;;;;;;3.85;3.47;;;2.40;60.70;;;;;;5114462;28;20031;-71
2024/01/09 12:03:58;;;;;;;3.63;3.33;;;2.30;60.70;;;;;;5114427;28;20031;-69
2024/01/09 12:06:28;;;;;;;3.97;3.55;;;2.30;60.70;;;;;;5116266;28;20027;-69
2024/01/09 12:08:53;;;;;;;3.72;3.33;;;2.30;60.70;;;;;;5116293;28;20028;-69
2024/01/09 12:11:19;;;;;;;3.78;3.33;;;2.30;60.70;;;;;;5115847;28;20389;-69
2024/01/09 12:13:45;;;;;;;3.45;3.15;;;2.30;60.70;;;;;;5115497;28;20100;-69
2024/01/09 12:16:18;;;;;;;4.70;3.55;;;2.30;60.70;;;;;;5114814;28;20462;-70
2024/01/09 12:18:49;;;;;;;3.50;3.20;;;2.30;60.70;;;;;;5115693;28;20027;-69
2024/01/09 12:21:15;;;;;;;3.67;3.30;;;2.30;60.70;;;;;;5114481;28;20487;-70
2024/01/09 12:23:41;;;;;;;3.67;3.38;;;2.30;60.70;;;;;;5114243;28;20454;-69
2024/01/09 12:26:07;;;;;;;4.15;3.40;;;2.20;60.70;;;;;;5114105;28;20028;-69
2024/01/09 12:28:33;;;;;;;5.07;3.70;;;2.20;60.70;;;;;;5114115;28;20020;-69
2024/01/09 12:31:03;;;;;;;4.40;3.70;;;2.20;60.70;;;;;;5113764;28;20034;-70
2024/01/09 12:33:29;;;;;;;4.25;3.75;;;2.20;60.70;;;;;;5114293;27;20381;-71
2024/01/09 12:35:58;;;;;;;3.63;3.33;;;2.20;60.70;;;;;;5115282;28;20083;-70
2024/01/09 12:38:24;;;;;;;4.30;3.50;;;2.20;60.80;;;;;;5115348;28;20027;-70
2024/01/09 12:41:00;;;;;;;3.53;3.22;;;2.20;60.80;;;;;;5121138;27;20102;-71
2024/01/09 12:43:27;;;;;;;4.10;3.70;;;2.20;60.80;;;;;;5119304;27;20034;-70
2024/01/09 12:45:56;;;;;;;3.67;3.38;;;2.10;60.80;;;;;;5121208;27;20036;-69
2024/01/09 12:48:25;;;;;;;3.92;3.38;;;2.10;60.80;;;;;;5106579;27;20031;-72
2024/01/09 12:51:01;;;;;;;3.70;3.30;;;2.10;60.80;;;;;;5120242;27;20401;-73
2024/01/09 12:53:33;;;;;;;4.07;3.35;;;2.10;60.80;;;;;;5117977;27;20019;-70